CheckWX is a tool to help pilots better visualize weather data.  It is not intended as a substitute for an official pre-flight weather briefing.

15:07:09 UTC

KDEW METAR
Deer Park Airport
Deer Park, Washington, USA
Current

14 mins ago

KDEW 201453Z AUTO 04007KT 10SM OVC080 11/M01 A2976 RMK AO2 SLP078 T01111011 53003
Observed
May-20 @ 14:53 UTC
Wind
  • 040° at 7 KTS
Visibility
10 SM
Flight Rules
VFR
Cloud Levels
  • Overcast at 8,000' AGL
Temperature
11°C / 52°F
Dewpoint
-1°C / 30°F
Humidity
44%
Altimeter
29.76" Hg
Pressure
1007.82 hPa
Previous

1 hour ago

KDEW 201353Z AUTO 02007KT 10SM BKN080 09/M01 A2976 RMK AO2 SLP077 T00891011 $
Observed
May-20 @ 13:53 UTC
Wind
  • 020° at 7 KTS
Visibility
10 SM
Flight Rules
VFR
Cloud Levels
  • Broken at 8,000' AGL
Temperature
C / 48°F
Dewpoint
-1°C / 30°F
Humidity
50%
Altimeter
29.76" Hg
Pressure
1007.82 hPa
Previous

2 hours ago

KDEW 201253Z AUTO 03009KT 10SM CLR 08/M02 A2976 RMK AO2 SLP075 T00781022 $
Observed
May-20 @ 12:53 UTC
Wind
  • 030° at 9 KTS
Visibility
10 SM
Flight Rules
VFR
Cloud Levels
  • Clear skies
Temperature
C / 46°F
Dewpoint
-2°C / 28°F
Humidity
50%
Altimeter
29.76" Hg
Pressure
1007.82 hPa